createdAt,value
2017-06-02T00:00:02.030Z,18.64
2017-06-02T00:00:22.037Z,18.71
2017-06-02T00:00:42.129Z,18.62
2017-06-02T00:01:02.675Z,18.67
2017-06-02T00:01:22.731Z,18.64
2017-06-02T00:01:42.133Z,18.74
2017-06-02T00:02:02.159Z,18.64
2017-06-02T00:02:21.592Z,18.67
2017-06-02T00:02:41.050Z,18.71
2017-06-02T00:03:01.022Z,18.74
2017-06-02T00:03:20.431Z,18.67
2017-06-02T00:03:39.823Z,18.65
2017-06-02T00:03:59.227Z,18.58
2017-06-02T00:04:18.662Z,18.59
2017-06-02T00:04:37.553Z,18.64
2017-06-02T00:04:56.962Z,18.59
2017-06-02T00:05:16.388Z,18.58
2017-06-02T00:05:35.818Z,18.59
2017-06-02T00:05:55.789Z,18.62
2017-06-02T00:06:15.210Z,18.59
2017-06-02T00:06:34.634Z,18.59
2017-06-02T00:06:54.591Z,18.59
2017-06-02T00:07:14.574Z,18.65
2017-06-02T00:07:33.652Z,18.58
2017-06-02T00:07:53.764Z,18.62
2017-06-02T00:08:13.976Z,18.65
2017-06-02T00:08:33.363Z,18.61
2017-06-02T00:08:52.795Z,18.62
2017-06-02T00:09:12.723Z,18.58
2017-06-02T00:09:31.675Z,18.58
2017-06-02T00:09:51.388Z,18.58
2017-06-02T00:10:11.339Z,18.57
2017-06-02T00:10:30.196Z,18.62
2017-06-02T00:10:50.223Z,18.58
2017-06-02T00:11:10.152Z,18.53
2017-06-02T00:11:29.569Z,18.59
2017-06-02T00:11:49.529Z,18.58
2017-06-02T00:12:08.966Z,18.61
2017-06-02T00:12:28.957Z,18.61
2017-06-02T00:12:48.930Z,18.58
2017-06-02T00:13:08.908Z,18.64
2017-06-02T00:13:28.872Z,18.61
2017-06-02T00:13:48.858Z,18.55
2017-06-02T00:14:08.848Z,18.55
2017-06-02T00:14:28.836Z,18.5
2017-06-02T00:14:48.216Z,18.5
2017-06-02T00:15:08.173Z,18.55
2017-06-02T00:15:27.572Z,18.43
2017-06-02T00:15:47.000Z,18.5
2017-06-02T00:16:07.303Z,18.43
2017-06-02T00:16:26.727Z,18.5
2017-06-02T00:16:46.749Z,18.5
2017-06-02T00:17:06.713Z,18.52
2017-06-02T00:17:26.121Z,18.47
2017-06-02T00:17:45.525Z,18.42
2017-06-02T00:18:04.966Z,18.47
2017-06-02T00:18:23.791Z,18.4
2017-06-02T00:18:42.668Z,18.39
2017-06-02T00:19:00.970Z,18.35
2017-06-02T00:19:21.051Z,18.35
2017-06-02T00:19:41.016Z,18.4
2017-06-02T00:20:00.990Z,18.4
2017-06-02T00:20:20.972Z,18.47
2017-06-02T00:20:40.387Z,18.4
2017-06-02T00:21:00.370Z,18.37
2017-06-02T00:21:20.325Z,18.31
2017-06-02T00:21:40.295Z,18.35
2017-06-02T00:22:00.291Z,18.32
2017-06-02T00:22:19.729Z,18.34
2017-06-02T00:22:38.586Z,18.32
2017-06-02T00:22:57.988Z,18.39
2017-06-02T00:23:17.984Z,18.4
2017-06-02T00:23:37.969Z,18.32
2017-06-02T00:23:57.397Z,18.39
2017-06-02T00:24:17.361Z,18.25
2017-06-02T00:24:36.818Z,18.29
2017-06-02T00:24:56.785Z,18.34
2017-06-02T00:25:16.837Z,18.32
2017-06-02T00:25:36.285Z,18.39
2017-06-02T00:25:56.294Z,18.22
2017-06-02T00:26:15.705Z,18.21
2017-06-02T00:26:35.115Z,18.25
2017-06-02T00:26:55.050Z,18.25
2017-06-02T00:27:15.011Z,18.31
2017-06-02T00:27:34.995Z,18.29
2017-06-02T00:27:54.416Z,18.22
2017-06-02T00:28:13.836Z,18.28
2017-06-02T00:28:33.262Z,18.28
2017-06-02T00:28:53.288Z,18.32
2017-06-02T00:29:12.755Z,18.29
2017-06-02T00:29:32.744Z,18.25
2017-06-02T00:29:52.159Z,18.28
2017-06-02T00:30:11.561Z,18.25
2017-06-02T00:30:30.468Z,18.28
2017-06-02T00:30:49.853Z,18.24
2017-06-02T00:31:09.362Z,18.19
2017-06-02T00:31:28.791Z,18.27
2017-06-02T00:31:47.638Z,18.25
2017-06-02T00:32:08.203Z,18.22
2017-06-02T00:32:29.059Z,18.21
2017-06-02T00:32:48.716Z,18.29
2017-06-02T00:33:08.141Z,18.19
2017-06-02T00:33:27.571Z,18.27
2017-06-02T00:33:48.033Z,18.25
2017-06-02T00:34:08.133Z,18.29
2017-06-02T00:34:27.555Z,18.19
2017-06-02T00:34:47.623Z,18.22
2017-06-02T00:35:07.691Z,18.18
2017-06-02T00:35:26.566Z,18.18
2017-06-02T00:35:46.584Z,18.27
2017-06-02T00:36:06.528Z,18.18
2017-06-02T00:36:25.963Z,18.22
2017-06-02T00:36:45.937Z,18.21
2017-06-02T00:37:05.365Z,18.19
2017-06-02T00:37:25.344Z,18.21
2017-06-02T00:37:44.769Z,18.14
2017-06-02T00:38:03.604Z,18.14
2017-06-02T00:38:22.583Z,18.13
2017-06-02T00:38:41.458Z,18.13
2017-06-02T00:39:00.846Z,18.13
2017-06-02T00:39:20.882Z,18.14
2017-06-02T00:39:40.266Z,18.18
2017-06-02T00:40:00.209Z,18.13
2017-06-02T00:40:20.197Z,18.18
2017-06-02T00:40:40.351Z,18.16
2017-06-02T00:41:00.485Z,18.18
2017-06-02T00:41:19.356Z,18.19
2017-06-02T00:41:39.324Z,18.18
2017-06-02T00:41:59.317Z,18.22
2017-06-02T00:42:19.339Z,18.19
2017-06-02T00:42:39.339Z,18.19
2017-06-02T00:42:59.358Z,18.16
2017-06-02T00:43:18.776Z,18.18
2017-06-02T00:43:38.209Z,18.14
2017-06-02T00:43:58.209Z,18.1
2017-06-02T00:44:18.217Z,18.16
2017-06-02T00:44:38.196Z,18.1
2017-06-02T00:44:57.620Z,18.21
2017-06-02T00:45:15.364Z,18.18
2017-06-02T00:45:35.373Z,18.1
2017-06-02T00:45:54.246Z,18.1
2017-06-02T00:46:13.856Z,18.18
2017-06-02T00:46:33.327Z,18.1
2017-06-02T00:46:53.274Z,18.1
2017-06-02T00:47:12.665Z,18.11
2017-06-02T00:47:32.060Z,18.13
2017-06-02T00:47:52.019Z,18.07
2017-06-02T00:48:12.047Z,18.13
2017-06-02T00:48:32.030Z,18.14
2017-06-02T00:48:51.992Z,18.09
2017-06-02T00:49:11.996Z,18.06
2017-06-02T00:50:07.218Z,18.06
2017-06-02T00:50:27.678Z,18.09
2017-06-02T00:50:47.079Z,18.09
2017-06-02T00:51:07.202Z,18.06
2017-06-02T00:51:41.183Z,17.96
2017-06-02T00:52:02.528Z,17.98
2017-06-02T00:52:22.572Z,17.98
2017-06-02T00:52:42.114Z,18
2017-06-02T00:53:01.675Z,18.04
2017-06-02T00:53:21.672Z,17.98
2017-06-02T00:53:41.074Z,18.04
2017-06-02T00:54:01.033Z,17.96
2017-06-02T00:54:20.432Z,17.98
2017-06-02T00:54:40.451Z,18.02
2017-06-02T00:55:00.436Z,18
2017-06-02T00:55:20.411Z,17.98
2017-06-02T00:55:40.400Z,17.96
2017-06-02T00:55:59.789Z,17.94
2017-06-02T00:56:19.185Z,18.02
2017-06-02T00:56:39.195Z,17.94
2017-06-02T00:56:58.610Z,17.96
2017-06-02T00:57:18.050Z,18
2017-06-02T00:57:37.427Z,17.96
2017-06-02T00:57:57.439Z,17.89
2017-06-02T00:58:17.457Z,17.92
2017-06-02T00:58:37.453Z,17.94
2017-06-02T00:58:56.866Z,17.98
2017-06-02T00:59:16.825Z,17.95
2017-06-02T00:59:36.794Z,18.02
2017-06-02T00:59:56.771Z,17.98
2017-06-02T01:00:17.554Z,17.98
2017-06-02T01:00:37.537Z,17.92
2017-06-02T01:00:57.507Z,17.95
2017-06-02T01:01:16.677Z,17.94
2017-06-02T01:01:36.088Z,17.88
2017-06-02T01:01:56.103Z,17.96
2017-06-02T01:02:16.149Z,17.95
2017-06-02T01:02:34.442Z,17.89
2017-06-02T01:02:54.433Z,17.96
2017-06-02T01:03:13.859Z,17.96
2017-06-02T01:03:32.739Z,17.95
2017-06-02T01:03:52.769Z,17.92
2017-06-02T01:04:12.237Z,17.98
2017-06-02T01:04:31.687Z,17.95
2017-06-02T01:04:51.735Z,17.94
2017-06-02T01:05:11.127Z,17.94
2017-06-02T01:05:31.135Z,18
2017-06-02T01:05:51.128Z,17.96
2017-06-02T01:06:11.121Z,17.98
2017-06-02T01:06:30.529Z,17.95
2017-06-02T01:06:49.934Z,17.96
2017-06-02T01:07:09.922Z,17.95
2017-06-02T01:07:29.925Z,17.88
2017-06-02T01:07:49.906Z,17.95
2017-06-02T01:08:09.319Z,17.94
2017-06-02T01:08:27.631Z,17.92
2017-06-02T01:08:46.511Z,17.87
2017-06-02T01:09:06.540Z,17.94
2017-06-02T01:09:26.012Z,17.88
2017-06-02T01:09:45.690Z,17.95
2017-06-02T01:10:05.773Z,17.92
2017-06-02T01:10:25.752Z,17.95
2017-06-02T01:10:45.710Z,17.96
2017-06-02T01:11:05.813Z,17.92
2017-06-02T01:11:25.781Z,17.87
2017-06-02T01:11:45.794Z,17.98
2017-06-02T01:12:04.665Z,17.94
2017-06-02T01:12:24.089Z,17.94
2017-06-02T01:12:44.066Z,17.87
2017-06-02T01:13:04.013Z,17.94
2017-06-02T01:13:23.991Z,17.95
2017-06-02T01:13:43.932Z,17.88
2017-06-02T01:14:03.926Z,17.96
2017-06-02T01:14:23.314Z,17.88
2017-06-02T01:14:43.285Z,17.87
2017-06-02T01:15:02.159Z,17.94
2017-06-02T01:15:21.608Z,17.87
2017-06-02T01:15:41.020Z,17.92
2017-06-02T01:16:01.009Z,17.84
2017-06-02T01:16:20.956Z,17.89
2017-06-02T01:16:40.931Z,17.92
2017-06-02T01:17:00.929Z,17.94
2017-06-02T01:17:20.960Z,17.91
2017-06-02T01:17:40.412Z,17.95
2017-06-02T01:18:00.395Z,17.91
2017-06-02T01:18:19.271Z,17.92
2017-06-02T01:18:39.261Z,17.84
2017-06-02T01:18:58.745Z,17.91
2017-06-02T01:19:18.432Z,17.89
2017-06-02T01:19:37.865Z,17.94
2017-06-02T01:19:58.007Z,17.82
2017-06-02T01:20:17.434Z,17.92
2017-06-02T01:20:37.464Z,17.91
2017-06-02T01:20:57.906Z,17.96
2017-06-02T01:21:17.324Z,17.94
2017-06-02T01:21:37.314Z,17.96
2017-06-02T01:21:57.348Z,17.91
2017-06-02T01:22:16.202Z,17.92
2017-06-02T01:22:36.128Z,17.92
2017-06-02T01:22:54.422Z,17.85
2017-06-02T01:23:13.845Z,17.89
2017-06-02T01:23:33.291Z,17.87
2017-06-02T01:23:53.770Z,17.95
2017-06-02T01:24:12.593Z,17.91
2017-06-02T01:24:31.482Z,17.94
2017-06-02T01:24:50.866Z,17.98
2017-06-02T01:25:10.857Z,17.89
2017-06-02T01:25:30.848Z,17.94
2017-06-02T01:25:50.319Z,17.89
2017-06-02T01:26:10.316Z,17.92
2017-06-02T01:26:30.287Z,17.94
2017-06-02T01:26:50.295Z,17.94
2017-06-02T01:27:10.327Z,17.82
2017-06-02T01:27:30.283Z,17.81
2017-06-02T01:27:50.257Z,17.85
2017-06-02T01:28:10.266Z,17.84
2017-06-02T01:28:29.154Z,17.92
2017-06-02T01:28:49.166Z,17.88
2017-06-02T01:29:08.621Z,17.94
2017-06-02T01:29:27.485Z,17.92
2017-06-02T01:29:46.932Z,17.84
2017-06-02T01:30:06.912Z,17.81
2017-06-02T01:30:26.899Z,17.88
2017-06-02T01:30:46.305Z,17.88
2017-06-02T01:31:06.357Z,17.91
2017-06-02T01:31:25.870Z,17.81
2017-06-02T01:31:45.931Z,17.84
2017-06-02T01:32:05.917Z,17.91
2017-06-02T01:32:24.782Z,17.82
2017-06-02T01:32:44.970Z,17.87
2017-06-02T01:33:04.943Z,17.73
2017-06-02T01:33:23.914Z,17.82
2017-06-02T01:33:43.314Z,17.88
2017-06-02T01:34:03.290Z,17.79
2017-06-02T01:34:22.732Z,17.84
2017-06-02T01:34:42.711Z,17.73
2017-06-02T01:35:02.674Z,17.76
2017-06-02T01:35:22.093Z,17.76
2017-06-02T01:35:42.007Z,17.74
2017-06-02T01:36:01.406Z,17.76
2017-06-02T01:36:20.819Z,17.74
2017-06-02T01:36:40.253Z,17.63
2017-06-02T01:36:59.669Z,17.71
2017-06-02T01:37:19.651Z,17.76
2017-06-02T01:37:38.473Z,17.76
2017-06-02T01:37:57.908Z,17.84
2017-06-02T01:38:18.100Z,17.81
2017-06-02T01:38:38.083Z,17.77
2017-06-02T01:38:58.057Z,17.73
2017-06-02T01:39:18.016Z,17.73
2017-06-02T01:39:38.016Z,17.77
2017-06-02T01:39:57.972Z,17.82
2017-06-02T01:40:17.945Z,17.69
2017-06-02T01:40:38.039Z,17.73
2017-06-02T01:40:58.022Z,17.82
2017-06-02T01:41:18.110Z,17.82
2017-06-02T01:41:36.619Z,17.79
2017-06-02T01:41:56.624Z,17.77
2017-06-02T01:42:15.475Z,17.74
2017-06-02T01:42:34.359Z,17.82
2017-06-02T01:42:53.774Z,17.79
2017-06-02T01:43:13.179Z,17.77
2017-06-02T01:43:32.595Z,17.77
2017-06-02T01:43:52.013Z,17.73
2017-06-02T01:44:11.957Z,17.73
2017-06-02T01:44:31.353Z,17.77
2017-06-02T01:44:50.733Z,17.77
2017-06-02T01:45:10.129Z,17.81
2017-06-02T01:45:30.106Z,17.76
2017-06-02T01:45:50.091Z,17.76
2017-06-02T01:46:10.074Z,17.71
2017-06-02T01:46:30.044Z,17.74
2017-06-02T01:46:48.897Z,17.74
2017-06-02T01:47:08.900Z,17.73
2017-06-02T01:47:28.880Z,17.69
2017-06-02T01:47:48.848Z,17.73
2017-06-02T01:48:08.847Z,17.69
2017-06-02T01:48:28.853Z,17.67
2017-06-02T01:48:48.852Z,17.7
2017-06-02T01:49:08.827Z,17.67
2017-06-02T01:49:28.224Z,17.67
2017-06-02T01:49:48.202Z,17.66
2017-06-02T01:50:07.060Z,17.67
2017-06-02T01:50:27.020Z,17.64
2017-06-02T01:50:47.017Z,17.6
2017-06-02T01:51:07.371Z,17.64
2017-06-02T01:51:26.762Z,17.67
2017-06-02T01:51:46.755Z,17.67
2017-06-02T01:52:06.231Z,17.67
2017-06-02T01:52:26.236Z,17.7
2017-06-02T01:52:45.641Z,17.67
2017-06-02T01:53:05.622Z,17.69
2017-06-02T01:53:24.467Z,17.73
2017-06-02T01:53:44.441Z,17.67
2017-06-02T01:54:04.445Z,17.64
2017-06-02T01:54:23.890Z,17.71
2017-06-02T01:54:43.286Z,17.71
2017-06-02T01:55:03.293Z,17.69
2017-06-02T01:55:22.732Z,17.69
2017-06-02T01:55:42.690Z,17.64
2017-06-02T01:56:02.652Z,17.7
2017-06-02T01:56:21.481Z,17.71
2017-06-02T01:56:40.326Z,17.7
2017-06-02T01:56:59.218Z,17.6
2017-06-02T01:57:18.043Z,17.64
2017-06-02T01:57:38.016Z,17.63
2017-06-02T01:57:57.993Z,17.64
2017-06-02T01:58:17.976Z,17.64
2017-06-02T01:58:37.954Z,17.7
2017-06-02T01:58:57.926Z,17.63
2017-06-02T01:59:17.331Z,17.67
2017-06-02T01:59:37.276Z,17.58
2017-06-02T01:59:57.313Z,17.69
2017-06-02T02:00:17.297Z,17.71
2017-06-02T02:00:36.714Z,17.69
2017-06-02T02:00:56.144Z,17.58
2017-06-02T02:01:16.255Z,17.67
2017-06-02T02:01:36.208Z,17.67
2017-06-02T02:01:56.164Z,17.57
2017-06-02T02:02:15.047Z,17.57
2017-06-02T02:02:34.509Z,17.69
2017-06-02T02:03:27.942Z,17.63
2017-06-02T02:03:47.917Z,17.63
2017-06-02T02:04:07.863Z,17.69
2017-06-02T02:04:26.702Z,17.66
2017-06-02T02:04:46.694Z,17.63
2017-06-02T02:05:06.689Z,17.66
2017-06-02T02:05:25.560Z,17.58
2017-06-02T02:05:44.997Z,17.7
2017-06-02T02:06:04.977Z,17.66
2017-06-02T02:06:24.360Z,17.66
2017-06-02T02:06:43.827Z,17.63
2017-06-02T02:07:03.786Z,17.66
2017-06-02T02:07:23.750Z,17.7
2017-06-02T02:07:43.702Z,17.66
2017-06-02T02:08:03.715Z,17.73
2017-06-02T02:08:23.154Z,17.57
2017-06-02T02:08:42.573Z,17.67
2017-06-02T02:09:01.995Z,17.64
2017-06-02T02:09:21.416Z,17.67
2017-06-02T02:09:40.816Z,17.64
2017-06-02T02:10:00.757Z,17.64
2017-06-02T02:10:20.180Z,17.64
2017-06-02T02:10:40.167Z,17.6
2017-06-02T02:11:00.164Z,17.63
2017-06-02T02:11:19.599Z,17.7
2017-06-02T02:11:39.585Z,17.76
2017-06-02T02:11:59.577Z,17.66
2017-06-02T02:12:18.426Z,17.71
2017-06-02T02:12:37.831Z,17.67
2017-06-02T02:12:57.242Z,17.66
2017-06-02T02:13:25.690Z,17.69
2017-06-02T02:13:45.662Z,17.71
2017-06-02T02:14:05.070Z,17.74
2017-06-02T02:14:23.381Z,17.67
2017-06-02T02:14:42.249Z,17.74
2017-06-02T02:15:01.686Z,17.69
2017-06-02T02:15:21.141Z,17.69
2017-06-02T02:15:41.176Z,17.7
2017-06-02T02:16:01.163Z,17.67
2017-06-02T02:16:20.562Z,17.7
2017-06-02T02:16:40.561Z,17.74
2017-06-02T02:17:00.552Z,17.66
2017-06-02T02:17:20.495Z,17.73
2017-06-02T02:17:40.449Z,17.69
2017-06-02T02:18:00.432Z,17.73
2017-06-02T02:18:19.301Z,17.64
2017-06-02T02:18:38.863Z,17.71
2017-06-02T02:18:58.834Z,17.7
2017-06-02T02:19:18.840Z,17.67
2017-06-02T02:19:38.224Z,17.64
2017-06-02T02:19:58.173Z,17.66
2017-06-02T02:20:18.145Z,17.69
2017-06-02T02:20:38.096Z,17.67
2017-06-02T02:20:57.500Z,17.69
2017-06-02T02:21:17.512Z,17.67
2017-06-02T02:21:37.548Z,17.64
2017-06-02T02:21:57.494Z,17.71
2017-06-02T02:22:17.472Z,17.67
2017-06-02T02:22:37.465Z,17.69
2017-06-02T02:22:56.867Z,17.67
2017-06-02T02:23:15.181Z,17.67
2017-06-02T02:23:34.622Z,17.66
2017-06-02T02:23:53.469Z,17.7
2017-06-02T02:24:12.878Z,17.71
2017-06-02T02:24:32.873Z,17.58
2017-06-02T02:24:52.276Z,17.67
2017-06-02T02:25:11.685Z,17.64
2017-06-02T02:25:31.116Z,17.58
2017-06-02T02:25:51.119Z,17.57
2017-06-02T02:26:10.544Z,17.64
2017-06-02T02:26:29.939Z,17.63
2017-06-02T02:26:49.939Z,17.64
2017-06-02T02:27:09.371Z,17.64
2017-06-02T02:27:28.773Z,17.64
2017-06-02T02:27:48.728Z,17.64
2017-06-02T02:28:08.700Z,17.6
2017-06-02T02:28:28.653Z,17.64
2017-06-02T02:28:48.672Z,17.55
2017-06-02T02:29:08.063Z,17.57
2017-06-02T02:29:27.495Z,17.6
2017-06-02T02:29:46.899Z,17.57
2017-06-02T02:30:06.857Z,17.6
2017-06-02T02:30:26.272Z,17.58
2017-06-02T02:30:45.143Z,17.58
2017-06-02T02:31:04.646Z,17.63
2017-06-02T02:31:24.633Z,17.58
2017-06-02T02:31:44.586Z,17.58
2017-06-02T02:32:04.549Z,17.57
2017-06-02T02:32:23.419Z,17.55
2017-06-02T02:32:43.366Z,17.64
2017-06-02T02:33:03.367Z,17.58
2017-06-02T02:33:21.665Z,17.57
2017-06-02T02:33:41.630Z,17.58
2017-06-02T02:34:01.613Z,17.58
2017-06-02T02:34:21.571Z,17.53
2017-06-02T02:34:41.029Z,17.6
2017-06-02T02:35:00.440Z,17.51
2017-06-02T02:35:20.386Z,17.57
2017-06-02T02:35:40.364Z,17.5
2017-06-02T02:36:00.355Z,17.55
2017-06-02T02:36:19.213Z,17.53
2017-06-02T02:36:39.169Z,17.4
2017-06-02T02:36:59.148Z,17.5
2017-06-02T02:37:18.004Z,17.44
2017-06-02T02:37:37.983Z,17.47
2017-06-02T02:37:57.968Z,17.35
2017-06-02T02:38:17.991Z,17.38
2017-06-02T02:38:37.436Z,17.32
2017-06-02T02:38:56.844Z,17.26
2017-06-02T02:39:15.160Z,17.26
2017-06-02T02:39:34.572Z,17.21
2017-06-02T02:39:53.983Z,17.17
2017-06-02T02:40:13.373Z,17.15
2017-06-02T02:40:32.795Z,17.11
2017-06-02T02:40:52.203Z,17.15
2017-06-02T02:41:12.954Z,17.13
2017-06-02T02:41:32.939Z,17.08
2017-06-02T02:41:52.908Z,17.05
2017-06-02T02:42:12.851Z,17.1
2017-06-02T02:42:32.831Z,17.05
2017-06-02T02:42:52.829Z,17.07
2017-06-02T02:43:11.667Z,16.98
2017-06-02T02:43:31.096Z,16.92
2017-06-02T02:43:51.086Z,17.02
2017-06-02T02:44:10.498Z,17.02
2017-06-02T02:44:29.885Z,16.98
2017-06-02T02:44:49.866Z,16.85
2017-06-02T02:45:09.269Z,16.88
2017-06-02T02:45:28.705Z,16.9
2017-06-02T02:45:48.672Z,16.84
2017-06-02T02:46:08.641Z,16.82
2017-06-02T02:46:28.609Z,16.81
2017-06-02T02:46:48.594Z,16.9
2017-06-02T02:47:08.022Z,16.8
2017-06-02T02:47:27.453Z,16.84
2017-06-02T02:47:46.841Z,16.85
2017-06-02T02:48:06.244Z,16.77
2017-06-02T02:48:24.546Z,16.84
2017-06-02T02:48:44.534Z,16.81
2017-06-02T02:49:03.986Z,16.81
2017-06-02T02:49:22.867Z,16.8
2017-06-02T02:49:42.855Z,16.77
2017-06-02T02:50:02.270Z,16.67
2017-06-02T02:50:21.159Z,16.8
2017-06-02T02:50:40.555Z,16.78
2017-06-02T02:51:00.750Z,16.73
2017-06-02T02:51:20.723Z,16.8
2017-06-02T02:51:40.141Z,16.67
2017-06-02T02:52:00.090Z,16.7
2017-06-02T02:52:19.481Z,16.65
2017-06-02T02:52:39.481Z,16.74
2017-06-02T02:52:59.480Z,16.74
2017-06-02T02:53:18.346Z,16.73
2017-06-02T02:53:37.733Z,16.71
2017-06-02T02:53:56.554Z,16.65
2017-06-02T02:54:16.489Z,16.77
2017-06-02T02:54:36.485Z,16.67
2017-06-02T02:54:56.470Z,16.73
2017-06-02T02:55:15.302Z,16.73
2017-06-02T02:55:35.297Z,16.67
2017-06-02T02:55:55.356Z,16.6
2017-06-02T02:56:15.310Z,16.63
2017-06-02T02:56:35.294Z,16.6
2017-06-02T02:56:55.285Z,16.6
2017-06-02T02:57:24.004Z,16.6
2017-06-02T02:57:43.979Z,16.63
2017-06-02T02:58:03.406Z,16.6
2017-06-02T02:58:56.009Z,16.56
2017-06-02T02:59:14.869Z,16.59
2017-06-02T02:59:34.802Z,16.53
2017-06-02T02:59:54.807Z,16.56
2017-06-02T03:00:14.812Z,16.63
2017-06-02T03:00:34.784Z,16.63
2017-06-02T03:00:54.749Z,16.55
2017-06-02T03:01:14.730Z,16.59
2017-06-02T03:01:34.147Z,16.6
2017-06-02T03:01:54.112Z,16.56
2017-06-02T03:02:14.072Z,16.56
2017-06-02T03:02:34.044Z,16.53
2017-06-02T03:02:53.492Z,16.6
2017-06-02T03:03:11.785Z,16.6
2017-06-02T03:03:31.781Z,16.6
2017-06-02T03:03:51.710Z,16.6
2017-06-02T03:04:11.654Z,16.6
2017-06-02T03:04:31.044Z,16.55
2017-06-02T03:04:51.008Z,16.55
2017-06-02T03:05:10.974Z,16.55
2017-06-02T03:05:30.942Z,16.5
2017-06-02T03:05:50.896Z,16.48
2017-06-02T03:06:10.312Z,16.56
2017-06-02T03:06:30.350Z,16.5
2017-06-02T03:06:49.230Z,16.52
2017-06-02T03:07:08.659Z,16.5
2017-06-02T03:07:28.648Z,16.56
2017-06-02T03:07:48.032Z,16.5
2017-06-02T03:08:08.020Z,16.57
2017-06-02T03:08:27.440Z,16.52
2017-06-02T03:08:47.396Z,16.45
2017-06-02T03:09:06.800Z,16.5
2017-06-02T03:09:26.225Z,16.5
2017-06-02T03:09:45.631Z,16.53
2017-06-02T03:10:05.036Z,16.53
2017-06-02T03:10:24.467Z,16.56
2017-06-02T03:10:44.442Z,16.47
2017-06-02T03:11:04.530Z,16.52
2017-06-02T03:11:23.910Z,16.48
2017-06-02T03:11:43.909Z,16.48
2017-06-02T03:12:03.888Z,16.45
2017-06-02T03:12:22.211Z,16.52
2017-06-02T03:12:41.656Z,16.48
2017-06-02T03:13:01.628Z,16.45
2017-06-02T03:13:21.569Z,16.52
2017-06-02T03:13:40.438Z,16.4
2017-06-02T03:14:00.445Z,16.44
2017-06-02T03:14:19.302Z,16.45
2017-06-02T03:14:39.275Z,16.5
2017-06-02T03:14:59.230Z,16.4
2017-06-02T03:15:19.196Z,16.38
2017-06-02T03:15:38.602Z,16.3
2017-06-02T03:15:58.553Z,16.33
2017-06-02T03:16:17.991Z,16.4
2017-06-02T03:16:36.825Z,16.33
2017-06-02T03:16:56.818Z,16.38
2017-06-02T03:17:16.826Z,16.4
2017-06-02T03:17:36.801Z,16.38
2017-06-02T03:17:56.766Z,16.37
2017-06-02T03:18:16.171Z,16.35
2017-06-02T03:18:35.589Z,16.34
2017-06-02T03:18:55.535Z,16.34
2017-06-02T03:19:15.506Z,16.29
2017-06-02T03:19:34.939Z,16.38
2017-06-02T03:19:54.928Z,16.25
2017-06-02T03:20:14.893Z,16.33
2017-06-02T03:20:33.748Z,16.23
2017-06-02T03:20:53.138Z,16.25
2017-06-02T03:21:13.375Z,16.25
2017-06-02T03:21:33.360Z,16.29
2017-06-02T03:21:53.427Z,16.29
2017-06-02T03:22:13.405Z,16.27
2017-06-02T03:22:32.266Z,16.25
2017-06-02T03:22:52.235Z,16.26
2017-06-02T03:23:12.214Z,16.33
2017-06-02T03:23:31.619Z,16.29
2017-06-02T03:23:51.582Z,16.29
2017-06-02T03:24:11.012Z,16.3
2017-06-02T03:24:30.441Z,16.25
2017-06-02T03:24:49.853Z,16.3
2017-06-02T03:25:10.005Z,16.25
2017-06-02T03:25:28.861Z,16.27
2017-06-02T03:25:48.828Z,16.29
2017-06-02T03:26:08.372Z,16.22
2017-06-02T03:26:27.194Z,16.29
2017-06-02T03:26:47.175Z,16.3
2017-06-02T03:27:07.130Z,16.29
2017-06-02T03:27:27.099Z,16.29
2017-06-02T03:27:47.071Z,16.25
2017-06-02T03:28:07.057Z,16.25
2017-06-02T03:28:25.921Z,16.29
2017-06-02T03:28:45.917Z,16.25
2017-06-02T03:29:05.902Z,16.16
2017-06-02T03:29:25.295Z,16.22
2017-06-02T03:29:45.267Z,16.22
2017-06-02T03:30:04.675Z,16.14
2017-06-02T03:30:24.638Z,16.16
2017-06-02T03:30:44.629Z,16.25
2017-06-02T03:31:04.611Z,16.23
2017-06-02T03:31:23.489Z,16.25
2017-06-02T03:31:43.440Z,16.22
2017-06-02T03:32:03.409Z,16.18
2017-06-02T03:32:23.382Z,16.2
2017-06-02T03:32:42.814Z,16.22
2017-06-02T03:33:02.210Z,16.2
2017-06-02T03:33:22.184Z,16.07
2017-06-02T03:33:41.600Z,16.1
2017-06-02T03:34:01.035Z,16.16
2017-06-02T03:34:21.019Z,16.14
2017-06-02T03:34:40.993Z,16.15
2017-06-02T03:35:01.029Z,16.2
2017-06-02T03:35:20.428Z,16.15
2017-06-02T03:35:39.884Z,16.1
2017-06-02T03:35:59.892Z,16.16
2017-06-02T03:36:19.288Z,16.12
2017-06-02T03:36:39.229Z,16.14
2017-06-02T03:36:59.192Z,16.12
2017-06-02T03:37:19.155Z,16.15
2017-06-02T03:37:39.078Z,16
2017-06-02T03:37:58.507Z,16.07
2017-06-02T03:38:17.910Z,16.07
2017-06-02T03:38:37.898Z,16.08
2017-06-02T03:38:57.875Z,16.1
2017-06-02T03:39:17.840Z,16.18
2017-06-02T03:39:37.784Z,16.08
2017-06-02T03:39:57.754Z,16.08
2017-06-02T03:40:17.178Z,16.1
2017-06-02T03:40:37.133Z,16.15
2017-06-02T03:40:56.586Z,16.14
2017-06-02T03:41:15.435Z,16.1
2017-06-02T03:41:34.300Z,15.99
2017-06-02T03:41:54.266Z,16.03
2017-06-02T03:42:14.258Z,16.07
2017-06-02T03:42:34.210Z,16
2017-06-02T03:42:54.137Z,15.97
2017-06-02T03:43:14.113Z,15.97
2017-06-02T03:43:34.105Z,15.99
2017-06-02T03:43:54.074Z,16.03
2017-06-02T03:44:13.485Z,16.01
2017-06-02T03:44:32.896Z,15.97
2017-06-02T03:44:52.940Z,16.07
2017-06-02T03:45:12.360Z,16.03
2017-06-02T03:45:31.764Z,16.04
2017-06-02T03:45:51.747Z,16.03
2017-06-02T03:46:11.151Z,16
2017-06-02T03:46:30.579Z,16
2017-06-02T03:46:50.005Z,16.01
2017-06-02T03:47:08.896Z,16.03
2017-06-02T03:47:28.312Z,16.03
2017-06-02T03:47:47.756Z,16.01
2017-06-02T03:48:07.745Z,15.99
2017-06-02T03:48:27.182Z,16
2017-06-02T03:48:47.183Z,16.03
2017-06-02T03:49:07.174Z,16
2017-06-02T03:49:27.147Z,15.97
2017-06-02T03:49:47.103Z,16.01
2017-06-02T03:50:06.534Z,16
2017-06-02T03:50:26.567Z,16.01
2017-06-02T03:50:46.022Z,16.01
2017-06-02T03:51:05.693Z,16.01
2017-06-02T03:51:23.985Z,16
2017-06-02T03:51:43.419Z,15.99
2017-06-02T03:52:03.424Z,16.01
2017-06-02T03:52:23.407Z,16.03
2017-06-02T03:52:43.371Z,16.04
2017-06-02T03:53:02.229Z,15.99
2017-06-02T03:53:22.181Z,16
2017-06-02T03:53:42.174Z,15.97
2017-06-02T03:54:02.130Z,15.97
2017-06-02T03:54:21.606Z,15.97
2017-06-02T03:54:41.018Z,15.94
2017-06-02T03:55:00.988Z,16
2017-06-02T03:55:20.920Z,15.92
2017-06-02T03:55:40.890Z,15.97
2017-06-02T03:56:00.858Z,15.94
2017-06-02T03:56:20.852Z,15.94
2017-06-02T03:56:40.849Z,15.96
2017-06-02T03:57:00.824Z,15.99
2017-06-02T03:57:20.232Z,15.99
2017-06-02T03:57:40.291Z,15.94
2017-06-02T03:57:59.703Z,15.96
2017-06-02T03:58:19.108Z,15.85
2017-06-02T03:58:39.085Z,15.99
2017-06-02T03:58:58.498Z,16.03
2017-06-02T03:59:17.949Z,15.86
2017-06-02T03:59:37.921Z,15.99
2017-06-02T03:59:57.891Z,15.94
2017-06-02T04:00:17.862Z,15.99
2017-06-02T04:00:37.820Z,15.88
2017-06-02T04:00:57.930Z,15.94
2017-06-02T04:01:17.930Z,15.96
2017-06-02T04:01:37.906Z,15.97
2017-06-02T04:01:57.905Z,15.89
2017-06-02T04:02:17.358Z,15.94
2017-06-02T04:02:37.333Z,15.88
2017-06-02T04:02:57.301Z,15.83
2017-06-02T04:03:17.270Z,15.88
2017-06-02T04:03:36.661Z,15.88
2017-06-02T04:03:56.666Z,15.86
2017-06-02T04:04:16.079Z,15.88
2017-06-02T04:04:34.993Z,15.82
2017-06-02T04:04:54.963Z,15.94
2017-06-02T04:05:12.713Z,15.86
2017-06-02T04:05:31.568Z,15.88
2017-06-02T04:05:51.559Z,15.88
2017-06-02T04:06:10.399Z,15.89
2017-06-02T04:06:29.807Z,15.85
2017-06-02T04:06:49.235Z,15.85
2017-06-02T04:07:09.228Z,15.88
2017-06-02T04:07:28.641Z,15.88
2017-06-02T04:07:48.065Z,15.88
2017-06-02T04:08:08.035Z,15.86
2017-06-02T04:08:27.438Z,15.85
2017-06-02T04:08:46.281Z,15.88
2017-06-02T04:09:05.668Z,15.88
2017-06-02T04:09:25.651Z,15.86
2017-06-02T04:09:45.636Z,15.88
2017-06-02T04:10:05.632Z,15.88
2017-06-02T04:10:25.620Z,15.86
2017-06-02T04:10:45.601Z,15.92
2017-06-02T04:11:05.820Z,15.78
2017-06-02T04:11:25.234Z,15.88
2017-06-02T04:11:44.613Z,15.76
2017-06-02T04:12:04.609Z,15.85
2017-06-02T04:12:24.018Z,15.88
2017-06-02T04:12:43.428Z,15.85
2017-06-02T04:13:03.359Z,15.79
2017-06-02T04:13:22.752Z,15.83
2017-06-02T04:13:42.758Z,15.78
2017-06-02T04:14:02.190Z,15.81
2017-06-02T04:14:22.164Z,15.82
2017-06-02T04:14:41.011Z,15.79
2017-06-02T04:15:00.936Z,15.76
2017-06-02T04:15:19.799Z,15.76
2017-06-02T04:15:38.671Z,15.81
2017-06-02T04:15:58.638Z,15.71
2017-06-02T04:16:18.062Z,15.78
2017-06-02T04:16:36.933Z,15.76